sensor_id;sensor_type;location;lat;lon;timestamp;pressure;altitude;pressure_sealevel;temperature;humidity
30967;BME280;17649;51.836;8.330;2022-08-11T00:01:57;101730.50;;;18.95;100.00
30967;BME280;17649;51.836;8.330;2022-08-11T00:05:11;101748.38;;;18.90;100.00
30967;BME280;17649;51.836;8.330;2022-08-11T00:08:26;101736.31;;;18.87;100.00
30967;BME280;17649;51.836;8.330;2022-08-11T00:11:47;101732.69;;;18.77;100.00
30967;BME280;17649;51.836;8.330;2022-08-11T00:14:58;101744.31;;;18.73;100.00
30967;BME280;17649;51.836;8.330;2022-08-11T00:18:07;101735.44;;;18.63;100.00
30967;BME280;17649;51.836;8.330;2022-08-11T00:21:13;101732.28;;;18.58;100.00
30967;BME280;17649;51.836;8.330;2022-08-11T00:24:22;101725.09;;;18.48;100.00
30967;BME280;17649;51.836;8.330;2022-08-11T00:27:34;101733.78;;;18.49;100.00
30967;BME280;17649;51.836;8.330;2022-08-11T00:30:40;101735.47;;;18.50;100.00
30967;BME280;17649;51.836;8.330;2022-08-11T00:33:45;101742.59;;;18.48;100.00
30967;BME280;17649;51.836;8.330;2022-08-11T00:37:03;101747.53;;;18.40;100.00
30967;BME280;17649;51.836;8.330;2022-08-11T00:40:14;101738.44;;;18.33;100.00
30967;BME280;17649;51.836;8.330;2022-08-11T01:00:25;101737.59;;;18.07;100.00
30967;BME280;17649;51.836;8.330;2022-08-11T01:10:47;101744.41;;;17.84;100.00
30967;BME280;17649;51.836;8.330;2022-08-11T01:21:34;101746.63;;;17.77;100.00
30967;BME280;17649;51.836;8.330;2022-08-11T01:49:44;101744.00;;;17.38;100.00
30967;BME280;17649;51.836;8.330;2022-08-11T02:00:25;101743.88;;;17.26;100.00
30967;BME280;17649;51.836;8.330;2022-08-11T02:03:40;101749.38;;;17.22;100.00
30967;BME280;17649;51.836;8.330;2022-08-11T02:07:16;101747.72;;;17.21;100.00
30967;BME280;17649;51.836;8.330;2022-08-11T02:10:43;101749.06;;;17.14;100.00
30967;BME280;17649;51.836;8.330;2022-08-11T02:14:42;101755.06;;;17.02;100.00
30967;BME280;17649;51.836;8.330;2022-08-11T02:17:59;101758.72;;;16.99;100.00
30967;BME280;17649;51.836;8.330;2022-08-11T02:25:06;101756.59;;;16.91;100.00
30967;BME280;17649;51.836;8.330;2022-08-11T02:28:37;101749.69;;;16.90;100.00
30967;BME280;17649;51.836;8.330;2022-08-11T02:35:21;101752.97;;;16.80;100.00
30967;BME280;17649;51.836;8.330;2022-08-11T02:38:50;101753.47;;;16.72;100.00
30967;BME280;17649;51.836;8.330;2022-08-11T02:42:22;101753.66;;;16.69;100.00
30967;BME280;17649;51.836;8.330;2022-08-11T02:45:59;101753.91;;;16.64;100.00
30967;BME280;17649;51.836;8.330;2022-08-11T02:56:43;101756.63;;;16.63;100.00
30967;BME280;17649;51.836;8.330;2022-08-11T03:03:20;101760.38;;;16.59;100.00
30967;BME280;17649;51.836;8.330;2022-08-11T03:13:30;101762.59;;;16.51;100.00
30967;BME280;17649;51.836;8.330;2022-08-11T03:24:25;101773.81;;;16.38;100.00
30967;BME280;17649;51.836;8.330;2022-08-11T03:28:13;101763.63;;;16.34;100.00
30967;BME280;17649;51.836;8.330;2022-08-11T03:32:25;101766.44;;;16.31;100.00
30967;BME280;17649;51.836;8.330;2022-08-11T03:35:09;101769.16;;;16.29;100.00
30967;BME280;17649;51.836;8.330;2022-08-11T03:42:49;101769.69;;;16.20;100.00
30967;BME280;17649;51.836;8.330;2022-08-11T04:28:23;101766.19;;;16.07;100.00
30967;BME280;17649;51.836;8.330;2022-08-11T04:31:48;101764.22;;;16.10;100.00
30967;BME280;17649;51.836;8.330;2022-08-11T04:35:25;101769.88;;;16.17;100.00
30967;BME280;17649;51.836;8.330;2022-08-11T04:50:06;101762.91;;;16.46;100.00
30967;BME280;17649;51.836;8.330;2022-08-11T04:54:04;101765.19;;;16.65;100.00
30967;BME280;17649;51.836;8.330;2022-08-11T05:02:06;101766.63;;;16.85;100.00
30967;BME280;17649;51.836;8.330;2022-08-11T05:09:17;101773.75;;;16.95;100.00
30967;BME280;17649;51.836;8.330;2022-08-11T05:16:52;101772.88;;;17.09;100.00
30967;BME280;17649;51.836;8.330;2022-08-11T05:25:10;101771.44;;;17.45;100.00
30967;BME280;17649;51.836;8.330;2022-08-11T05:33:00;101753.69;;;17.63;100.00
30967;BME280;17649;51.836;8.330;2022-08-11T05:43:51;101764.31;;;18.25;100.00
30967;BME280;17649;51.836;8.330;2022-08-11T05:47:21;101738.63;;;18.30;100.00
30967;BME280;17649;51.836;8.330;2022-08-11T05:51:06;101747.38;;;18.54;100.00
30967;BME280;17649;51.836;8.330;2022-08-11T05:54:36;101757.25;;;18.76;100.00
30967;BME280;17649;51.836;8.330;2022-08-11T05:58:21;101733.78;;;18.86;100.00
30967;BME280;17649;51.836;8.330;2022-08-11T06:05:22;101753.25;;;19.42;100.00
30967;BME280;17649;51.836;8.330;2022-08-11T06:13:06;101755.19;;;19.86;100.00
30967;BME280;17649;51.836;8.330;2022-08-11T06:16:36;101753.06;;;20.03;100.00
30967;BME280;17649;51.836;8.330;2022-08-11T06:19:41;101732.75;;;20.05;100.00
30967;BME280;17649;51.836;8.330;2022-08-11T06:23:13;101749.25;;;20.40;100.00
30967;BME280;17649;51.836;8.330;2022-08-11T06:26:28;101744.59;;;20.55;100.00
30967;BME280;17649;51.836;8.330;2022-08-11T06:29:57;101744.94;;;20.73;100.00
30967;BME280;17649;51.836;8.330;2022-08-11T06:45:19;101717.34;;;21.52;100.00
30967;BME280;17649;51.836;8.330;2022-08-11T06:48:33;101726.53;;;21.79;100.00
30967;BME280;17649;51.836;8.330;2022-08-11T06:52:04;101707.56;;;21.85;100.00
30967;BME280;17649;51.836;8.330;2022-08-11T06:55:13;101726.84;;;22.06;100.00
30967;BME280;17649;51.836;8.330;2022-08-11T07:18:37;101719.94;;;22.74;100.00
30967;BME280;17649;51.836;8.330;2022-08-11T08:23:52;101697.84;;;25.17;100.00
30967;BME280;17649;51.836;8.330;2022-08-11T08:27:24;101709.28;;;25.44;100.00
30967;BME280;17649;51.836;8.330;2022-08-11T08:34:58;101704.69;;;25.72;100.00
30967;BME280;17649;51.836;8.330;2022-08-11T08:46:57;101713.56;;;25.89;100.00
30967;BME280;17649;51.836;8.330;2022-08-11T08:50:43;101703.38;;;26.02;97.71
30967;BME280;17649;51.836;8.330;2022-08-11T09:05:16;101703.94;;;26.64;94.84
30967;BME280;17649;51.836;8.330;2022-08-11T09:12:05;101678.41;;;26.79;79.17
30967;BME280;17649;51.836;8.330;2022-08-11T09:15:29;101689.03;;;26.95;87.12
30967;BME280;17649;51.836;8.330;2022-08-11T09:19:02;101675.59;;;26.97;85.40
30967;BME280;17649;51.836;8.330;2022-08-11T09:22:50;101687.25;;;27.12;73.68
30967;BME280;17649;51.836;8.330;2022-08-11T09:42:16;101647.78;;;27.65;100.00
30967;BME280;17649;51.836;8.330;2022-08-11T10:07:44;101635.97;;;28.14;63.04
30967;BME280;17649;51.836;8.330;2022-08-11T10:23:51;101642.13;;;28.84;45.55
30967;BME280;17649;51.836;8.330;2022-08-11T10:31:18;101599.22;;;28.87;100.00
30967;BME280;17649;51.836;8.330;2022-08-11T10:34:39;101631.03;;;29.03;51.02
30967;BME280;17649;51.836;8.330;2022-08-11T10:37:45;101604.56;;;29.16;47.91
30967;BME280;17649;51.836;8.330;2022-08-11T10:40:58;101622.16;;;29.55;48.31
30967;BME280;17649;51.836;8.330;2022-08-11T10:48:35;101591.25;;;29.31;42.81
30967;BME280;17649;51.836;8.330;2022-08-11T10:51:37;101597.06;;;29.64;50.19
30967;BME280;17649;51.836;8.330;2022-08-11T10:55:09;101595.25;;;29.86;43.94
30967;BME280;17649;51.836;8.330;2022-08-11T10:58:29;101600.88;;;30.06;40.05
30967;BME280;17649;51.836;8.330;2022-08-11T11:01:48;101600.88;;;30.27;40.15
30967;BME280;17649;51.836;8.330;2022-08-11T11:05:19;101602.75;;;30.69;41.91
30967;BME280;17649;51.836;8.330;2022-08-11T11:08:27;101576.09;;;30.54;39.10
30967;BME280;17649;51.836;8.330;2022-08-11T11:11:55;101578.13;;;30.52;40.78
30967;BME280;17649;51.836;8.330;2022-08-11T11:15:25;101580.16;;;30.08;37.96
30967;BME280;17649;51.836;8.330;2022-08-11T11:18:58;101583.47;;;30.31;42.32
30967;BME280;17649;51.836;8.330;2022-08-11T11:22:14;101588.03;;;30.58;37.09
30967;BME280;17649;51.836;8.330;2022-08-11T11:25:57;101576.97;;;30.83;39.75
30967;BME280;17649;51.836;8.330;2022-08-11T11:36:32;101570.25;;;32.30;35.46
30967;BME280;17649;51.836;8.330;2022-08-11T11:39:41;101566.91;;;33.72;34.55
30967;BME280;17649;51.836;8.330;2022-08-11T11:46:16;101555.25;;;35.16;30.03
30967;BME280;17649;51.836;8.330;2022-08-11T11:49:31;101549.09;;;34.48;30.26
30967;BME280;17649;51.836;8.330;2022-08-11T12:05:26;101523.53;;;37.94;27.27
30967;BME280;17649;51.836;8.330;2022-08-11T12:09:02;101518.03;;;38.95;36.86
30967;BME280;17649;51.836;8.330;2022-08-11T12:12:31;101521.84;;;38.55;24.77
30967;BME280;17649;51.836;8.330;2022-08-11T12:16:09;101517.25;;;38.39;24.56
30967;BME280;17649;51.836;8.330;2022-08-11T12:19:33;101517.84;;;38.41;25.84
30967;BME280;17649;51.836;8.330;2022-08-11T12:23:11;101518.31;;;38.38;24.86
30967;BME280;17649;51.836;8.330;2022-08-11T12:26:49;101508.56;;;38.03;25.02
30967;BME280;17649;51.836;8.330;2022-08-11T12:30:10;101503.03;;;39.04;28.00
30967;BME280;17649;51.836;8.330;2022-08-11T12:33:18;101497.97;;;40.20;22.73
30967;BME280;17649;51.836;8.330;2022-08-11T12:36:21;101493.66;;;40.72;22.51
30967;BME280;17649;51.836;8.330;2022-08-11T12:40:04;101478.72;;;40.22;22.96
30967;BME280;17649;51.836;8.330;2022-08-11T12:43:35;101487.69;;;40.22;22.32
30967;BME280;17649;51.836;8.330;2022-08-11T12:46:58;101482.31;;;40.80;24.54
30967;BME280;17649;51.836;8.330;2022-08-11T12:50:00;101482.63;;;40.89;26.34
30967;BME280;17649;51.836;8.330;2022-08-11T13:00:45;101465.72;;;41.85;21.69
30967;BME280;17649;51.836;8.330;2022-08-11T13:04:05;101454.06;;;42.79;20.31
30967;BME280;17649;51.836;8.330;2022-08-11T13:07:29;101458.31;;;41.24;20.93
30967;BME280;17649;51.836;8.330;2022-08-11T13:10:41;101454.81;;;41.34;21.79
30967;BME280;17649;51.836;8.330;2022-08-11T13:14:08;101443.34;;;42.44;20.58
30967;BME280;17649;51.836;8.330;2022-08-11T13:21:28;101434.16;;;42.04;19.37
30967;BME280;17649;51.836;8.330;2022-08-11T13:25:31;101446.88;;;42.49;20.31
30967;BME280;17649;51.836;8.330;2022-08-11T13:28:59;101433.38;;;40.55;21.21
30967;BME280;17649;51.836;8.330;2022-08-11T13:32:03;101442.81;;;42.32;20.58
30967;BME280;17649;51.836;8.330;2022-08-11T13:35:12;101435.28;;;41.98;20.17
30967;BME280;17649;51.836;8.330;2022-08-11T13:38:29;101430.03;;;44.28;18.56
30967;BME280;17649;51.836;8.330;2022-08-11T13:41:45;101429.78;;;43.77;18.73
30967;BME280;17649;51.836;8.330;2022-08-11T13:44:52;101428.47;;;41.95;19.54
30967;BME280;17649;51.836;8.330;2022-08-11T13:48:15;101432.91;;;40.20;20.88
30967;BME280;17649;51.836;8.330;2022-08-11T13:51:30;101429.78;;;42.23;18.96
30967;BME280;17649;51.836;8.330;2022-08-11T13:54:44;101417.97;;;43.13;22.10
30967;BME280;17649;51.836;8.330;2022-08-11T13:58:03;101414.44;;;45.33;20.28
30967;BME280;17649;51.836;8.330;2022-08-11T14:01:06;101413.50;;;46.44;21.26
30967;BME280;17649;51.836;8.330;2022-08-11T14:04:15;101402.78;;;46.70;16.63
30967;BME280;17649;51.836;8.330;2022-08-11T14:07:26;101401.00;;;45.83;19.14
30967;BME280;17649;51.836;8.330;2022-08-11T14:10:38;101379.25;;;47.49;20.67
30967;BME280;17649;51.836;8.330;2022-08-11T14:13:41;101384.84;;;47.67;17.72
30967;BME280;17649;51.836;8.330;2022-08-11T14:21:26;101390.16;;;43.55;18.37
30967;BME280;17649;51.836;8.330;2022-08-11T14:25:05;101380.88;;;44.33;17.64
30967;BME280;17649;51.836;8.330;2022-08-11T14:28:33;101375.53;;;45.41;17.92
30967;BME280;17649;51.836;8.330;2022-08-11T14:31:42;101367.72;;;45.15;17.46
30967;BME280;17649;51.836;8.330;2022-08-11T14:34:47;101367.38;;;45.82;17.50
30967;BME280;17649;51.836;8.330;2022-08-11T14:46:29;101356.84;;;48.79;16.03
30967;BME280;17649;51.836;8.330;2022-08-11T14:49:49;101343.00;;;49.48;19.18
30967;BME280;17649;51.836;8.330;2022-08-11T14:53:12;101347.44;;;49.70;17.90
30967;BME280;17649;51.836;8.330;2022-08-11T15:08:47;101339.56;;;47.78;16.18
30967;BME280;17649;51.836;8.330;2022-08-11T15:12:23;101334.25;;;48.82;16.98
30967;BME280;17649;51.836;8.330;2022-08-11T15:22:33;101331.34;;;47.87;19.45
30967;BME280;17649;51.836;8.330;2022-08-11T15:43:58;101288.34;;;48.13;17.67
30967;BME280;17649;51.836;8.330;2022-08-11T15:47:36;101298.97;;;47.97;19.41
30967;BME280;17649;51.836;8.330;2022-08-11T15:54:38;101302.03;;;48.04;16.11
30967;BME280;17649;51.836;8.330;2022-08-11T15:58:00;101289.22;;;49.30;15.98
30967;BME280;17649;51.836;8.330;2022-08-11T16:05:11;101294.03;;;48.34;18.87
30967;BME280;17649;51.836;8.330;2022-08-11T16:08:55;101302.22;;;47.99;15.96
30967;BME280;17649;51.836;8.330;2022-08-11T16:12:45;101279.91;;;46.10;18.98
30967;BME280;17649;51.836;8.330;2022-08-11T16:25:58;101278.22;;;47.57;17.36
30967;BME280;17649;51.836;8.330;2022-08-11T16:29:08;101282.47;;;47.80;19.43
30967;BME280;17649;51.836;8.330;2022-08-11T16:32:46;101266.19;;;46.59;17.41
30967;BME280;17649;51.836;8.330;2022-08-11T16:46:41;101257.00;;;46.78;17.13
30967;BME280;17649;51.836;8.330;2022-08-11T16:50:08;101259.53;;;47.28;17.70
30967;BME280;17649;51.836;8.330;2022-08-11T16:53:19;101261.47;;;47.67;17.81
30967;BME280;17649;51.836;8.330;2022-08-11T17:04:52;101265.06;;;44.82;18.92
30967;BME280;17649;51.836;8.330;2022-08-11T17:08:30;101269.63;;;41.47;22.29
30967;BME280;17649;51.836;8.330;2022-08-11T17:15:50;101285.16;;;36.29;26.25
30967;BME280;17649;51.836;8.330;2022-08-11T17:19:24;101290.91;;;34.86;33.27
30967;BME280;17649;51.836;8.330;2022-08-11T17:22:29;101273.97;;;33.75;31.08
30967;BME280;17649;51.836;8.330;2022-08-11T17:25:54;101290.09;;;32.87;35.25
30967;BME280;17649;51.836;8.330;2022-08-11T17:29:28;101290.50;;;32.26;45.98
30967;BME280;17649;51.836;8.330;2022-08-11T17:32:54;101288.34;;;31.70;42.66
30967;BME280;17649;51.836;8.330;2022-08-11T17:36:26;101285.69;;;31.44;60.55
30967;BME280;17649;51.836;8.330;2022-08-11T17:39:53;101258.88;;;30.98;58.73
30967;BME280;17649;51.836;8.330;2022-08-11T17:43:53;101290.25;;;30.76;78.69
30967;BME280;17649;51.836;8.330;2022-08-11T17:47:26;101288.53;;;30.62;63.52
30967;BME280;17649;51.836;8.330;2022-08-11T17:51:20;101273.25;;;30.36;77.61
30967;BME280;17649;51.836;8.330;2022-08-11T17:58:41;101294.88;;;30.13;87.41
30967;BME280;17649;51.836;8.330;2022-08-11T18:02:03;101301.13;;;29.98;98.10
30967;BME280;17649;51.836;8.330;2022-08-11T18:05:46;101306.75;;;29.82;84.89
30967;BME280;17649;51.836;8.330;2022-08-11T18:09:14;101308.72;;;29.74;77.81
30967;BME280;17649;51.836;8.330;2022-08-11T18:12:34;101272.03;;;29.48;84.05
30967;BME280;17649;51.836;8.330;2022-08-11T18:15:54;101304.84;;;29.48;91.46
30967;BME280;17649;51.836;8.330;2022-08-11T18:19:16;101304.41;;;29.30;75.31
30967;BME280;17649;51.836;8.330;2022-08-11T18:22:42;101302.47;;;29.17;100.00
30967;BME280;17649;51.836;8.330;2022-08-11T18:26:10;101308.34;;;28.91;96.15
30967;BME280;17649;51.836;8.330;2022-08-11T18:29:59;101306.88;;;28.74;100.00
30967;BME280;17649;51.836;8.330;2022-08-11T18:33:25;101312.44;;;28.58;100.00
30967;BME280;17649;51.836;8.330;2022-08-11T18:37:15;101314.44;;;28.41;82.64
30967;BME280;17649;51.836;8.330;2022-08-11T18:40:46;101303.50;;;28.21;100.00
30967;BME280;17649;51.836;8.330;2022-08-11T18:48:26;101293.06;;;27.82;82.45
30967;BME280;17649;51.836;8.330;2022-08-11T18:52:27;101301.78;;;27.76;83.25
30967;BME280;17649;51.836;8.330;2022-08-11T19:55:05;101361.75;;;25.32;100.00
30967;BME280;17649;51.836;8.330;2022-08-11T19:58:25;101363.53;;;25.23;100.00
30967;BME280;17649;51.836;8.330;2022-08-11T20:01:56;101368.66;;;25.17;100.00
30967;BME280;17649;51.836;8.330;2022-08-11T20:05:20;101352.50;;;24.94;100.00
30967;BME280;17649;51.836;8.330;2022-08-11T20:09:03;101369.03;;;24.96;100.00
30967;BME280;17649;51.836;8.330;2022-08-11T20:12:50;101377.13;;;24.86;100.00
30967;BME280;17649;51.836;8.330;2022-08-11T20:16:17;101378.22;;;24.76;100.00
30967;BME280;17649;51.836;8.330;2022-08-11T20:19:39;101360.56;;;24.50;100.00
30967;BME280;17649;51.836;8.330;2022-08-11T20:23:12;101375.09;;;24.46;100.00
30967;BME280;17649;51.836;8.330;2022-08-11T20:26:46;101374.22;;;24.37;100.00
30967;BME280;17649;51.836;8.330;2022-08-11T20:30:18;101368.94;;;24.20;100.00
30967;BME280;17649;51.836;8.330;2022-08-11T20:33:45;101380.16;;;24.14;100.00
30967;BME280;17649;51.836;8.330;2022-08-11T20:38:06;101372.47;;;24.02;100.00
30967;BME280;17649;51.836;8.330;2022-08-11T20:44:42;101372.09;;;23.79;100.00
30967;BME280;17649;51.836;8.330;2022-08-11T20:48:04;101378.34;;;23.78;100.00
30967;BME280;17649;51.836;8.330;2022-08-11T20:51:53;101379.28;;;23.69;100.00
30967;BME280;17649;51.836;8.330;2022-08-11T20:55:21;101365.34;;;23.49;100.00
30967;BME280;17649;51.836;8.330;2022-08-11T20:58:45;101363.22;;;23.35;100.00
30967;BME280;17649;51.836;8.330;2022-08-11T21:02:25;101386.56;;;23.40;100.00
30967;BME280;17649;51.836;8.330;2022-08-11T21:05:50;101387.44;;;23.31;100.00
30967;BME280;17649;51.836;8.330;2022-08-11T21:09:28;101388.03;;;23.25;100.00
30967;BME280;17649;51.836;8.330;2022-08-11T21:12:54;101386.97;;;23.17;100.00
30967;BME280;17649;51.836;8.330;2022-08-11T21:16:29;101378.13;;;23.09;100.00
30967;BME280;17649;51.836;8.330;2022-08-11T21:20:03;101382.16;;;23.03;100.00
30967;BME280;17649;51.836;8.330;2022-08-11T21:27:37;101391.03;;;22.84;100.00
30967;BME280;17649;51.836;8.330;2022-08-11T21:31:25;101390.75;;;22.78;100.00
30967;BME280;17649;51.836;8.330;2022-08-11T21:34:52;101378.03;;;22.64;100.00
30967;BME280;17649;51.836;8.330;2022-08-11T21:38:19;101377.50;;;22.50;100.00
30967;BME280;17649;51.836;8.330;2022-08-11T21:42:00;101397.34;;;22.54;100.00
30967;BME280;17649;51.836;8.330;2022-08-11T21:49:20;101393.09;;;22.34;100.00
30967;BME280;17649;51.836;8.330;2022-08-11T21:53:08;101370.06;;;22.17;100.00
30967;BME280;17649;51.836;8.330;2022-08-11T21:56:33;101376.22;;;22.08;100.00
30967;BME280;17649;51.836;8.330;2022-08-11T22:00:05;101378.28;;;22.04;100.00
30967;BME280;17649;51.836;8.330;2022-08-11T22:08:06;101403.78;;;21.94;100.00
30967;BME280;17649;51.836;8.330;2022-08-11T22:27:52;101415.53;;;21.51;100.00
30967;BME280;17649;51.836;8.330;2022-08-11T22:31:36;101390.00;;;21.32;100.00
30967;BME280;17649;51.836;8.330;2022-08-11T22:35:19;101412.44;;;21.36;100.00
30967;BME280;17649;51.836;8.330;2022-08-11T22:46:50;101390.41;;;20.97;100.00
30967;BME280;17649;51.836;8.330;2022-08-11T22:50:34;101394.34;;;20.82;100.00
30967;BME280;17649;51.836;8.330;2022-08-11T22:54:17;101415.59;;;20.90;100.00
30967;BME280;17649;51.836;8.330;2022-08-11T23:06:10;101408.81;;;20.67;100.00
30967;BME280;17649;51.836;8.330;2022-08-11T23:13:38;101404.03;;;20.51;100.00
30967;BME280;17649;51.836;8.330;2022-08-11T23:24:58;101417.56;;;20.46;100.00
30967;BME280;17649;51.836;8.330;2022-08-11T23:28:17;101395.84;;;20.23;100.00
30967;BME280;17649;51.836;8.330;2022-08-11T23:32:10;101424.09;;;20.31;100.00
30967;BME280;17649;51.836;8.330;2022-08-11T23:47:33;101416.56;;;20.06;100.00
30967;BME280;17649;51.836;8.330;2022-08-11T23:51:24;101404.56;;;19.92;100.00
30967;BME280;17649;51.836;8.330;2022-08-11T23:55:16;101404.56;;;19.92;100.00
